Time;durP1;ratioP1;P1;durP2;ratioP2;P2;SDS_P1;SDS_P2;PMS_P1;PMS_P2;Temp;Humidity;BMP_temperature;BMP_pressure;BME280_temperature;BME280_humidity;BME280_pressure;Samples;Min_cycle;Max_cycle;Signal;HPM_P1;HPM_P2
2024/04/01 00:01:00;;;;;;;44.60;13.40;;;;;;;11.85;71.88;99468.52;105944;1260;139131;-68
2024/04/01 00:03:44;;;;;;;52.20;12.70;;;;;;;11.81;71.83;99462.91;105053;1254;73470;-67
2024/04/01 00:06:11;;;;;;;54.80;13.50;;;;;;;11.75;71.87;99469.77;104809;1265;138718;-65
2024/04/01 00:08:37;;;;;;;47.10;12.30;;;;;;;11.71;71.99;99470.63;104923;1264;61987;-66
2024/04/01 00:11:04;;;;;;;43.50;12.70;;;;;;;11.67;72.00;99471.34;104990;1254;139335;-66
2024/04/01 00:13:31;;;;;;;38.70;12.70;;;;;;;11.61;72.15;99472.73;104996;1259;67123;-66
2024/04/01 00:15:58;;;;;;;46.10;13.10;;;;;;;11.54;72.10;99472.40;105046;1260;72629;-66
2024/04/01 00:18:24;;;;;;;53.80;13.60;;;;;;;11.48;72.30;99465.88;105010;1254;138762;-66
2024/04/01 00:20:56;;;;;;;53.30;12.10;;;;;;;11.45;72.50;99456.93;105040;1260;62756;-66
2024/04/01 00:23:24;;;;;;;48.10;13.40;;;;;;;11.41;72.53;99450.77;105574;1254;138687;-66
2024/04/01 00:25:50;;;;;;;48.00;13.10;;;;;;;11.39;72.76;99445.69;105140;1257;66574;-66
2024/04/01 00:28:17;;;;;;;66.80;13.90;;;;;;;11.38;72.86;99442.34;105150;1254;73367;-66
2024/04/01 00:30:43;;;;;;;49.00;14.70;;;;;;;11.38;73.01;99442.86;105035;1257;138450;-66
2024/04/01 00:33:10;;;;;;;50.90;13.70;;;;;;;11.36;73.01;99448.32;105220;1254;62052;-67
2024/04/01 00:35:40;;;;;;;62.20;15.10;;;;;;;11.34;72.94;99451.48;104989;1254;138856;-67
2024/04/01 00:38:07;;;;;;;47.60;14.00;;;;;;;11.30;72.95;99457.09;109266;1254;66813;-67
2024/04/01 00:40:35;;;;;;;51.80;13.90;;;;;;;11.24;72.94;99460.94;106079;1257;72239;-67
2024/04/01 00:43:06;;;;;;;48.20;13.20;;;;;;;11.16;72.96;99461.98;105098;1258;62118;-67
2024/04/01 00:45:33;;;;;;;51.20;14.50;;;;;;;11.09;73.01;99465.13;107721;1255;59751;-67
2024/04/01 00:48:01;;;;;;;46.10;15.40;;;;;;;11.03;73.02;99472.48;104732;1260;138673;-67
2024/04/01 00:50:28;;;;;;;50.40;14.30;;;;;;;10.95;73.09;99473.88;107781;1263;66689;-67
2024/04/01 00:52:54;;;;;;;45.30;14.20;;;;;;;10.86;73.07;99473.84;104807;1260;138943;-67
2024/04/01 00:55:21;;;;;;;54.30;15.70;;;;;;;10.80;73.22;99476.27;104832;1255;62147;-68
2024/04/01 00:57:49;;;;;;;50.70;14.20;;;;;;;10.74;73.35;99476.08;104813;1258;61957;-67
2024/04/01 01:00:15;;;;;;;43.20;13.80;;;;;;;10.67;73.46;99476.05;109157;1253;138826;-67
2024/04/01 01:02:42;;;;;;;46.10;16.90;;;;;;;10.61;73.57;99472.70;105302;1254;64733;-66
2024/04/01 01:05:09;;;;;;;52.90;15.70;;;;;;;10.57;73.67;99472.33;104777;1259;138887;-67
2024/04/01 01:07:36;;;;;;;47.90;15.90;;;;;;;10.52;73.78;99480.02;105001;1258;62166;-67
2024/04/01 01:10:05;;;;;;;50.30;16.00;;;;;;;10.47;73.89;99487.19;105085;1260;62003;-67
2024/04/01 01:12:31;;;;;;;57.50;15.70;;;;;;;10.43;73.98;99486.47;109092;1254;139483;-67
2024/04/01 01:14:58;;;;;;;50.00;16.00;;;;;;;10.38;74.05;99488.37;109027;1254;66969;-67
2024/04/01 01:17:25;;;;;;;42.20;16.00;;;;;;;10.34;74.23;99480.98;108413;1254;139599;-67
2024/04/01 01:19:51;;;;;;;49.60;15.10;;;;;;;10.33;74.35;99480.27;105226;1255;62137;-67
2024/04/01 01:22:31;;;;;;;47.90;14.90;;;;;;;10.31;74.51;99474.48;105102;1254;62166;-66
2024/04/01 01:24:58;;;;;;;51.70;14.90;;;;;;;10.32;74.65;99468.17;105273;1254;139857;-66
2024/04/01 01:27:25;;;;;;;53.70;17.40;;;;;;;10.32;74.79;99460.27;105085;1257;67113;-66
2024/04/01 01:29:52;;;;;;;47.10;16.70;;;;;;;10.34;74.98;99456.08;104945;1254;138882;-66
2024/04/01 01:32:19;;;;;;;54.20;16.60;;;;;;;10.37;75.15;99456.80;104817;1254;62017;-66
2024/04/01 01:34:46;;;;;;;60.70;14.80;;;;;;;10.39;75.12;99462.24;104928;1255;139164;-66
2024/04/01 01:37:13;;;;;;;44.90;14.50;;;;;;;10.41;75.23;99457.34;104998;1257;76073;-67
2024/04/01 01:39:39;;;;;;;54.90;13.90;;;;;;;10.41;75.25;99448.94;104726;1262;66946;-67
2024/04/01 01:42:06;;;;;;;51.50;16.70;;;;;;;10.42;75.27;99452.80;105005;1264;138122;-66
2024/04/01 01:44:33;;;;;;;47.70;15.20;;;;;;;10.44;75.35;99455.77;105077;1254;60473;-67
2024/04/01 01:46:59;;;;;;;44.10;15.60;;;;;;;10.44;75.44;99453.67;104873;1254;140315;-66
2024/04/01 01:49:26;;;;;;;53.60;16.60;;;;;;;10.44;75.45;99450.34;104898;1260;76458;-67
2024/04/01 01:51:53;;;;;;;38.40;14.30;;;;;;;10.43;75.48;99447.01;104987;1267;65237;-67
2024/04/01 01:54:19;;;;;;;61.70;16.10;;;;;;;10.42;75.48;99446.30;105040;1257;139187;-67
2024/04/01 01:56:46;;;;;;;56.40;17.70;;;;;;;10.40;75.51;99449.97;105030;1255;62042;-67
2024/04/01 01:59:13;;;;;;;44.50;15.70;;;;;;;10.39;75.51;99452.07;105033;1257;139141;-66
2024/04/01 02:01:39;;;;;;;56.20;16.30;;;;;;;10.38;75.67;99454.17;105077;1254;76614;-66
2024/04/01 02:04:06;;;;;;;48.40;14.70;;;;;;;10.38;75.69;99452.24;105046;1257;66365;-66
2024/04/01 02:06:33;;;;;;;47.90;14.60;;;;;;;10.36;75.65;99453.82;104940;1254;138627;-66
2024/04/01 02:08:59;;;;;;;63.60;16.10;;;;;;;10.34;75.77;99453.80;105064;1257;62179;-67
2024/04/01 02:11:26;;;;;;;55.20;15.70;;;;;;;10.33;75.59;99457.66;105066;1254;138785;-67
2024/04/01 02:13:53;;;;;;;58.20;15.80;;;;;;;10.27;75.55;99458.46;105114;1257;76489;-67
2024/04/01 02:16:19;;;;;;;54.80;15.80;;;;;;;10.21;75.59;99458.60;105010;1260;66898;-66
2024/04/01 02:18:47;;;;;;;49.30;14.00;;;;;;;10.13;75.50;99462.95;105130;1257;138831;-67
2024/04/01 02:21:13;;;;;;;50.30;15.20;;;;;;;10.06;75.69;99462.72;107004;1257;62156;-67
2024/04/01 02:23:40;;;;;;;50.60;13.80;;;;;;;9.99;75.68;99468.98;105041;1261;138883;-67
2024/04/01 02:26:08;;;;;;;41.90;13.30;;;;;;;9.91;75.71;99468.77;105130;1257;74964;-67
2024/04/01 02:28:37;;;;;;;48.80;14.70;;;;;;;9.85;75.76;99467.32;105064;1257;66845;-65
2024/04/01 02:31:04;;;;;;;44.90;13.80;;;;;;;9.79;75.86;99469.38;105079;1257;72952;-67
2024/04/01 02:33:31;;;;;;;58.60;14.50;;;;;;;9.73;75.93;99467.57;105039;1259;62163;-67
2024/04/01 02:35:58;;;;;;;48.70;15.50;;;;;;;9.67;76.02;99468.59;109198;1254;138534;-67
2024/04/01 02:38:25;;;;;;;47.30;16.90;;;;;;;9.62;76.22;99463.27;105674;1254;76462;-66
2024/04/01 02:40:51;;;;;;;61.70;18.10;;;;;;;9.60;76.40;99460.11;105039;1254;138941;-67
2024/04/01 02:43:18;;;;;;;58.30;17.50;;;;;;;9.58;76.54;99460.63;105079;1254;62138;-66
2024/04/01 02:45:44;;;;;;;55.80;17.90;;;;;;;9.57;76.61;99461.67;104913;1254;62067;-66
2024/04/01 02:48:11;;;;;;;51.80;15.10;;;;;;;9.55;76.75;99463.40;105079;1257;138478;-67
2024/04/01 02:50:37;;;;;;;47.80;13.90;;;;;;;9.54;76.77;99464.98;105098;1254;76282;-66
2024/04/01 02:53:04;;;;;;;45.20;14.70;;;;;;;9.52;76.86;99461.45;105058;1257;138775;-67
2024/04/01 02:55:31;;;;;;;49.60;13.50;;;;;;;9.50;76.81;99466.34;105274;1254;71917;-68
2024/04/01 02:57:57;;;;;;;42.70;12.80;;;;;;;9.46;76.87;99462.45;105122;1254;62092;-67
2024/04/01 03:00:25;;;;;;;44.10;12.50;;;;;;;9.43;76.94;99457.70;104985;1254;139198;-67
2024/04/01 03:02:51;;;;;;;49.90;12.50;;;;;;;9.40;77.01;99459.41;105166;1255;76467;-67
2024/04/01 03:05:18;;;;;;;42.20;12.10;;;;;;;9.39;77.15;99456.44;104981;1257;141429;-67
2024/04/01 03:07:45;;;;;;;51.30;12.90;;;;;;;9.38;77.26;99460.80;105084;1254;73467;-66
2024/04/01 03:10:11;;;;;;;46.00;13.80;;;;;;;9.37;77.24;99456.77;105059;1254;62166;-67
2024/04/01 03:12:40;;;;;;;51.70;11.80;;;;;;;9.33;77.29;99457.45;104992;1254;138668;-67
2024/04/01 03:15:16;;;;;;;41.50;10.80;;;;;;;9.32;77.38;99455.32;107274;1253;75466;-67
2024/04/01 03:17:43;;;;;;;43.70;12.00;;;;;;;9.32;77.50;99454.44;104982;1259;139276;-67
2024/04/01 03:20:11;;;;;;;52.40;12.50;;;;;;;9.30;77.45;99454.61;109195;1253;72175;-68
2024/04/01 03:22:39;;;;;;;40.70;12.00;;;;;;;9.29;77.55;99454.06;105519;1259;62234;-67
2024/04/01 03:25:06;;;;;;;42.30;12.80;;;;;;;9.28;77.60;99457.20;106771;1253;60481;-67
2024/04/01 03:27:33;;;;;;;61.00;13.50;;;;;;;9.27;77.70;99456.33;105069;1257;74668;-67
2024/04/01 03:29:59;;;;;;;49.20;12.10;;;;;;;9.26;77.70;99461.74;104992;1257;138576;-67
2024/04/01 03:32:26;;;;;;;40.30;11.70;;;;;;;9.26;77.86;99463.14;105052;1257;73288;-67
2024/04/01 03:34:53;;;;;;;46.20;12.80;;;;;;;9.28;77.91;99461.05;105010;1257;138889;-67
2024/04/01 03:37:20;;;;;;;45.50;12.00;;;;;;;9.28;78.06;99461.76;104936;1254;62052;-67
2024/04/01 03:39:46;;;;;;;51.90;13.20;;;;;;;9.27;78.07;99465.08;105143;1255;76696;-66
2024/04/01 03:42:13;;;;;;;54.60;12.10;;;;;;;9.28;78.14;99466.48;104970;1254;138549;-67
2024/04/01 03:44:40;;;;;;;39.40;12.80;;;;;;;9.28;78.16;99465.77;105129;1257;73606;-66
2024/04/01 03:47:07;;;;;;;53.30;12.50;;;;;;;9.29;78.29;99464.92;104888;1256;139113;-67
2024/04/01 03:49:34;;;;;;;61.80;13.10;;;;;;;9.29;78.34;99463.17;108015;1254;59847;-67
2024/04/01 03:52:00;;;;;;;45.70;11.90;;;;;;;9.32;78.53;99466.34;104986;1256;77226;-66
2024/04/01 03:54:27;;;;;;;49.60;11.80;;;;;;;9.33;78.52;99464.79;104894;1257;138827;-66
2024/04/01 03:56:54;;;;;;;56.30;11.80;;;;;;;9.34;78.52;99463.56;105196;1254;73641;-67
2024/04/01 03:59:20;;;;;;;50.70;12.00;;;;;;;9.35;78.64;99453.95;104897;1254;138708;-66
2024/04/01 04:01:47;;;;;;;46.20;11.30;;;;;;;9.37;78.72;99446.61;105161;1257;62017;-68
2024/04/01 04:04:14;;;;;;;50.10;11.80;;;;;;;9.40;78.78;99443.83;105114;1253;74701;-67
2024/04/01 04:06:40;;;;;;;47.90;11.00;;;;;;;9.40;78.66;99444.36;104986;1255;138464;-67
2024/04/01 04:09:26;;;;;;;45.10;11.70;;;;;;;9.41;78.78;99448.58;105038;1259;73834;-68
2024/04/01 04:11:52;;;;;;;48.60;12.30;;;;;;;9.42;78.82;99448.42;104952;1257;138832;-68
2024/04/01 04:14:20;;;;;;;38.20;11.80;;;;;;;9.41;78.64;99454.53;109284;1253;60043;-66
2024/04/01 04:16:47;;;;;;;45.60;11.10;;;;;;;9.38;78.54;99462.73;105671;1253;138786;-65
2024/04/01 04:19:13;;;;;;;54.90;12.70;;;;;;;9.34;78.46;99458.83;105130;1257;66664;-66
2024/04/01 04:21:40;;;;;;;45.10;11.50;;;;;;;9.32;78.49;99458.11;105020;1255;73335;-66
2024/04/01 04:24:08;;;;;;;40.10;11.20;;;;;;;9.29;78.47;99453.55;109110;1253;138574;-67
2024/04/01 04:26:35;;;;;;;39.80;11.00;;;;;;;9.26;78.46;99453.34;109014;1253;59799;-67
2024/04/01 04:29:01;;;;;;;46.50;12.30;;;;;;;9.27;78.51;99447.05;107233;1254;138761;-66
2024/04/01 04:31:28;;;;;;;51.30;11.70;;;;;;;9.31;78.70;99451.30;105100;1254;66933;-67
2024/04/01 04:33:56;;;;;;;36.70;10.40;;;;;;;9.37;78.67;99452.91;107364;1253;71800;-66
2024/04/01 04:36:23;;;;;;;48.00;12.00;;;;;;;9.43;78.64;99456.65;104994;1254;138665;-66
2024/04/01 04:38:49;;;;;;;43.60;13.70;;;;;;;9.51;78.55;99454.96;105110;1257;62386;-66
2024/04/01 04:41:19;;;;;;;55.50;12.70;;;;;;;9.58;78.61;99452.56;104998;1254;138732;-66
2024/04/01 04:43:46;;;;;;;42.90;11.40;;;;;;;9.70;78.60;99454.41;105090;1253;66060;-67
2024/04/01 04:46:13;;;;;;;43.50;12.40;;;;;;;9.79;78.59;99458.16;104847;1257;225031;-67
2024/04/01 04:48:40;;;;;;;42.30;11.80;;;;;;;9.89;78.46;99461.57;104979;1253;138901;-68
2024/04/01 04:51:07;;;;;;;51.60;12.60;;;;;;;9.98;78.43;99465.31;104937;1254;62196;-67
2024/04/01 04:53:34;;;;;;;49.30;11.80;;;;;;;10.07;78.23;99461.68;105017;1254;138764;-67
2024/04/01 04:56:01;;;;;;;50.50;13.40;;;;;;;10.10;77.89;99471.86;109171;1256;66604;-66
2024/04/01 04:58:27;;;;;;;54.00;13.40;;;;;;;10.06;77.51;99477.29;106675;1255;73483;-68
2024/04/01 05:00:54;;;;;;;45.20;12.10;;;;;;;10.00;77.54;99484.60;104860;1259;138994;-65
2024/04/01 05:03:21;;;;;;;52.30;12.60;;;;;;;9.94;77.43;99491.91;105043;1254;61974;-68
2024/04/01 05:05:47;;;;;;;37.10;11.80;;;;;;;9.87;77.31;99495.54;104973;1257;138660;-65
2024/04/01 05:08:14;;;;;;;48.20;12.90;;;;;;;9.85;77.56;99500.26;104992;1254;62156;-66
2024/04/01 05:10:42;;;;;;;46.90;12.20;;;;;;;9.94;77.73;99505.05;104928;1254;138779;-66
2024/04/01 05:13:10;;;;;;;45.80;13.00;;;;;;;10.07;77.65;99507.42;109249;1253;59860;-67
2024/04/01 05:15:37;;;;;;;42.90;12.30;;;;;;;10.23;77.59;99511.04;109396;1253;60329;-66
2024/04/01 05:18:03;;;;;;;54.00;14.50;;;;;;;10.38;77.45;99507.84;108237;1253;138840;-66
2024/04/01 05:20:30;;;;;;;53.70;12.50;;;;;;;10.54;77.36;99512.83;105206;1253;66937;-68
2024/04/01 05:22:56;;;;;;;50.20;13.40;;;;;;;10.74;77.52;99511.00;104974;1257;140480;-65
2024/04/01 05:25:24;;;;;;;44.10;12.50;;;;;;;10.95;77.43;99507.92;105084;1257;62162;-66
2024/04/01 05:27:50;;;;;;;48.20;14.20;;;;;;;11.17;77.53;99501.48;105117;1254;62290;-66
2024/04/01 05:30:20;;;;;;;55.40;13.40;;;;;;;11.40;77.41;99505.23;105026;1253;139065;-66
2024/04/01 05:32:47;;;;;;;51.00;13.70;;;;;;;11.64;77.38;99501.73;109189;1253;66301;-67
2024/04/01 05:35:16;;;;;;;51.50;12.40;;;;;;;11.90;77.27;99504.76;105015;1253;139043;-67
2024/04/01 05:37:44;;;;;;;49.60;12.40;;;;;;;12.12;76.83;99507.20;105070;1257;62076;-67
2024/04/01 05:40:11;;;;;;;50.70;13.50;;;;;;;12.29;76.47;99505.24;108092;1253;60724;-67
2024/04/01 05:42:38;;;;;;;55.20;14.30;;;;;;;12.45;76.18;99503.80;105000;1254;138006;-67
2024/04/01 05:45:05;;;;;;;56.00;13.80;;;;;;;12.61;75.97;99499.16;105094;1258;66952;-67
2024/04/01 05:47:32;;;;;;;49.90;12.40;;;;;;;12.75;75.73;99499.48;105010;1254;138136;-67
2024/04/01 05:49:58;;;;;;;47.10;12.60;;;;;;;12.89;75.60;99502.05;105089;1257;61990;-66
2024/04/01 05:52:25;;;;;;;49.70;12.30;;;;;;;13.05;75.49;99506.56;105137;1254;66664;-67
2024/04/01 05:54:52;;;;;;;59.90;13.10;;;;;;;13.19;75.28;99504.20;104950;1254;139363;-67
2024/04/01 05:57:18;;;;;;;51.20;13.20;;;;;;;13.32;75.11;99508.20;105391;1254;62490;-66
2024/04/01 05:59:46;;;;;;;45.50;12.10;;;;;;;13.44;74.91;99507.26;105131;1254;139205;-66
2024/04/01 06:02:12;;;;;;;44.90;13.60;;;;;;;13.57;74.74;99505.93;105152;1257;61932;-66
2024/04/01 06:04:39;;;;;;;47.20;11.70;;;;;;;13.69;74.55;99502.31;105201;1257;61981;-66
2024/04/01 06:07:06;;;;;;;50.80;11.80;;;;;;;13.84;74.40;99495.32;105154;1254;75237;-67
2024/04/01 06:09:33;;;;;;;46.20;12.60;;;;;;;13.96;74.05;99489.92;105270;1254;66024;-67
2024/04/01 06:12:00;;;;;;;52.50;11.70;;;;;;;14.07;73.91;99485.75;105021;1254;138217;-67
2024/04/01 06:14:26;;;;;;;43.10;10.40;;;;;;;14.19;73.58;99480.54;105125;1256;62096;-67
2024/04/01 06:16:53;;;;;;;43.20;12.20;;;;;;;14.31;73.47;99477.05;104758;1260;138127;-68
2024/04/01 06:19:19;;;;;;;59.50;13.70;;;;;;;14.42;73.17;99479.77;105080;1254;75841;-68
2024/04/01 06:21:46;;;;;;;55.90;14.20;;;;;;;14.49;72.93;99480.20;105099;1257;66145;-70
2024/04/01 06:24:13;;;;;;;45.00;11.30;;;;;;;14.57;72.75;99477.66;104930;1254;138243;-68
2024/04/01 06:26:39;;;;;;;44.80;12.60;;;;;;;14.66;72.53;99477.75;105147;1257;62082;-68
2024/04/01 06:29:06;;;;;;;55.80;12.10;;;;;;;14.73;72.35;99480.84;104911;1259;138834;-67
2024/04/01 06:31:33;;;;;;;48.20;11.80;;;;;;;14.80;72.13;99478.46;105078;1253;75090;-67
2024/04/01 06:34:00;;;;;;;50.00;12.50;;;;;;;14.88;72.01;99480.30;105197;1257;65733;-68
2024/04/01 06:36:27;;;;;;;45.10;11.10;;;;;;;14.94;71.92;99481.63;104946;1259;138693;-67
2024/04/01 06:38:53;;;;;;;46.10;11.50;;;;;;;15.02;71.75;99481.36;105147;1254;62124;-66
2024/04/01 06:41:20;;;;;;;37.20;12.30;;;;;;;15.09;71.71;99477.20;105041;1257;139223;-67
2024/04/01 06:43:46;;;;;;;49.40;11.20;;;;;;;15.18;71.53;99477.08;105181;1254;75932;-67
2024/04/01 06:46:13;;;;;;;52.50;12.10;;;;;;;15.25;71.23;99478.75;105169;1257;66420;-67
2024/04/01 06:48:40;;;;;;;43.00;11.10;;;;;;;15.27;71.13;99478.70;105002;1254;138156;-67
2024/04/01 06:51:06;;;;;;;52.90;11.90;;;;;;;15.31;70.99;99478.11;105053;1257;62050;-67
2024/04/01 06:53:33;;;;;;;44.80;11.80;;;;;;;15.33;70.87;99481.10;104991;1254;138059;-66
2024/04/01 06:55:59;;;;;;;39.50;12.80;;;;;;;15.37;70.90;99483.87;105084;1257;76617;-67
2024/04/01 06:58:26;;;;;;;39.70;14.30;;;;;;;15.44;70.92;99481.81;105180;1257;65636;-66
2024/04/01 07:00:53;;;;;;;38.00;11.60;;;;;;;15.51;70.70;99487.02;105011;1254;138768;-67
2024/04/01 07:03:19;;;;;;;46.90;13.50;;;;;;;15.57;70.63;99491.17;105146;1257;61155;-66
2024/04/01 07:05:46;;;;;;;60.40;13.80;;;;;;;15.61;70.52;99493.05;105022;1257;138240;-67
2024/04/01 07:08:13;;;;;;;51.60;12.70;;;;;;;15.66;70.45;99494.39;105073;1253;74392;-67
2024/04/01 07:10:39;;;;;;;59.10;13.30;;;;;;;15.73;70.47;99494.11;105090;1257;66913;-67
2024/04/01 07:13:06;;;;;;;57.80;13.10;;;;;;;15.81;70.28;99496.65;105058;1254;73730;-67
2024/04/01 07:15:34;;;;;;;55.00;13.30;;;;;;;15.87;70.19;99497.79;105073;1257;62057;-66
2024/04/01 07:18:01;;;;;;;49.60;14.10;;;;;;;15.96;70.13;99499.77;104969;1257;138484;-67
2024/04/01 07:20:28;;;;;;;59.20;13.60;;;;;;;16.04;70.01;99499.78;105097;1254;75416;-67
2024/04/01 07:22:54;;;;;;;56.50;14.10;;;;;;;16.14;70.03;99494.84;104980;1254;138944;-67
2024/04/01 07:25:21;;;;;;;48.10;13.60;;;;;;;16.25;69.91;99488.81;105118;1254;71896;-67
2024/04/01 07:27:47;;;;;;;54.70;13.90;;;;;;;16.34;69.70;99488.11;105009;1254;62032;-68
2024/04/01 07:30:15;;;;;;;52.30;12.60;;;;;;;16.42;69.49;99483.89;104839;1259;138123;-67
2024/04/01 07:32:42;;;;;;;40.30;11.40;;;;;;;16.50;69.20;99482.15;106656;1255;76001;-68
2024/04/01 07:35:11;;;;;;;48.70;12.40;;;;;;;16.58;69.13;99483.95;104970;1254;138652;-67
2024/04/01 07:37:37;;;;;;;50.30;12.50;;;;;;;16.64;68.93;99484.69;104849;1254;73663;-68
2024/04/01 07:40:04;;;;;;;53.30;13.10;;;;;;;16.71;68.86;99478.34;107897;1254;62226;-67
2024/04/01 07:42:31;;;;;;;57.50;14.10;;;;;;;16.78;68.64;99473.79;105953;1258;138144;-68
2024/04/01 07:44:58;;;;;;;51.90;13.10;;;;;;;16.84;68.39;99473.69;105126;1257;75914;-67
2024/04/01 07:47:24;;;;;;;57.80;12.30;;;;;;;16.92;68.15;99476.72;105044;1254;138410;-67
2024/04/01 07:49:51;;;;;;;58.00;12.40;;;;;;;17.01;68.18;99474.23;105031;1254;71531;-68
2024/04/01 07:52:18;;;;;;;54.90;12.80;;;;;;;17.11;68.09;99477.38;105188;1254;62163;-68
2024/04/01 07:54:44;;;;;;;52.30;12.50;;;;;;;17.21;67.89;99476.96;105026;1259;138219;-67
2024/04/01 07:57:12;;;;;;;54.10;11.60;;;;;;;17.31;67.83;99480.64;105094;1254;76503;-69
2024/04/01 07:59:39;;;;;;;58.20;12.00;;;;;;;17.43;67.59;99480.70;105097;1254;138127;-67
2024/04/01 08:02:06;;;;;;;64.10;12.70;;;;;;;17.56;67.36;99481.30;105075;1257;72788;-67
2024/04/01 08:04:32;;;;;;;44.50;11.70;;;;;;;17.67;67.10;99483.31;105116;1254;62067;-67
2024/04/01 08:06:59;;;;;;;62.30;13.40;;;;;;;17.79;66.90;99482.35;105121;1257;138400;-67
2024/04/01 08:09:26;;;;;;;68.90;11.60;;;;;;;17.89;66.60;99478.23;105200;1254;75147;-67
2024/04/01 08:11:52;;;;;;;60.80;13.20;;;;;;;17.97;66.26;99473.21;105127;1256;138503;-67
2024/04/01 08:14:19;;;;;;;57.40;13.30;;;;;;;18.05;66.00;99474.77;105188;1254;72143;-67
2024/04/01 08:16:46;;;;;;;49.40;10.60;;;;;;;18.13;65.84;99477.77;108232;1254;138375;-67
2024/04/01 08:19:16;;;;;;;48.00;11.10;;;;;;;18.21;65.62;99477.21;105078;1254;62138;-67
2024/04/01 08:21:43;;;;;;;55.10;11.80;;;;;;;18.32;65.46;99482.95;109033;1256;75204;-67
2024/04/01 08:24:10;;;;;;;54.10;11.10;;;;;;;18.44;65.30;99487.60;105045;1254;138065;-67
2024/04/01 08:26:36;;;;;;;38.10;10.80;;;;;;;18.58;65.04;99487.20;104998;1254;73540;-67
2024/04/01 08:29:03;;;;;;;56.80;16.50;;;;;;;18.72;64.92;99493.58;105054;1256;138560;-68
2024/04/01 08:31:30;;;;;;;46.70;11.40;;;;;;;18.90;64.58;99495.23;105183;1254;62133;-68
2024/04/01 08:33:56;;;;;;;66.30;12.20;;;;;;;19.07;64.48;99494.52;107100;1254;76019;-68
2024/04/01 08:36:23;;;;;;;61.60;11.80;;;;;;;19.26;64.11;99498.23;104949;1256;137988;-68
2024/04/01 08:38:50;;;;;;;54.60;11.90;;;;;;;19.44;63.78;99498.38;105113;1254;74003;-68
2024/04/01 08:41:52;;;;;;;47.60;11.20;;;;;;;19.63;63.49;99496.17;104998;1254;138270;-68
2024/04/01 08:44:19;;;;;;;44.90;9.50;;;;;;;19.86;62.98;99495.81;104658;1260;62192;-68
2024/04/01 08:46:49;;;;;;;53.10;10.70;;;;;;;20.02;62.52;99495.64;104553;1260;138490;-69
2024/04/01 08:49:38;;;;;;;51.20;9.80;;;;;;;20.19;62.16;99485.10;105623;1261;64990;-68
2024/04/01 08:52:05;;;;;;;51.50;10.00;;;;;;;20.40;61.53;99480.63;108696;1259;72919;-67
2024/04/01 08:54:32;;;;;;;49.60;11.70;;;;;;;20.58;61.25;99484.45;108577;1261;138566;-67
2024/04/01 08:56:58;;;;;;;63.50;11.40;;;;;;;20.72;60.80;99492.48;108772;1260;59876;-67
2024/04/01 08:59:25;;;;;;;61.70;11.20;;;;;;;20.81;60.26;99502.52;105312;1261;138454;-66
2024/04/01 09:01:52;;;;;;;55.00;12.10;;;;;;;20.93;60.23;99511.70;104525;1261;64728;-67
2024/04/01 09:04:18;;;;;;;48.10;10.50;;;;;;;21.03;60.11;99513.11;104525;1260;73768;-67
2024/04/01 09:06:45;;;;;;;58.60;13.80;;;;;;;21.16;60.10;99518.16;104321;1267;138557;-67
2024/04/01 09:09:12;;;;;;;61.90;16.50;;;;;;;21.32;60.26;99525.18;104554;1262;62168;-66
2024/04/01 09:11:39;;;;;;;51.40;11.90;;;;;;;21.53;60.02;99526.38;104396;1261;138084;-69
2024/04/01 09:14:05;;;;;;;48.40;12.90;;;;;;;21.71;59.69;99521.38;104502;1266;68027;-66
2024/04/01 09:16:32;;;;;;;57.70;12.10;;;;;;;21.78;59.02;99517.68;104514;1263;73668;-67
2024/04/01 09:19:01;;;;;;;58.60;12.20;;;;;;;21.74;58.74;99515.92;104754;1254;137891;-67
2024/04/01 09:21:27;;;;;;;61.50;15.00;;;;;;;21.69;58.30;99516.48;105117;1254;62130;-67
2024/04/01 09:23:54;;;;;;;49.60;12.40;;;;;;;21.65;58.21;99513.77;104962;1253;138695;-67
2024/04/01 09:26:21;;;;;;;44.20;12.60;;;;;;;21.55;57.81;99520.21;105163;1254;66919;-67
2024/04/01 09:28:47;;;;;;;52.60;11.80;;;;;;;21.47;57.67;99520.55;104855;1254;138406;-67
2024/04/01 09:31:14;;;;;;;59.50;13.10;;;;;;;21.40;57.72;99520.98;104699;1254;62144;-68
2024/04/01 09:33:40;;;;;;;60.30;12.30;;;;;;;21.28;57.56;99515.17;105113;1259;62062;-68
2024/04/01 09:36:07;;;;;;;53.10;14.00;;;;;;;21.15;57.51;99510.85;104881;1254;138467;-68
2024/04/01 09:38:34;;;;;;;51.30;11.50;;;;;;;21.02;57.64;99510.80;105022;1257;67248;-68
2024/04/01 09:41:01;;;;;;;51.70;12.10;;;;;;;20.90;57.69;99510.00;104903;1259;138318;-67
2024/04/01 09:43:31;;;;;;;55.80;11.50;;;;;;;20.86;57.75;99503.22;105008;1259;62140;-67
2024/04/01 09:45:59;;;;;;;55.90;11.60;;;;;;;20.85;57.76;99496.67;109359;1253;61122;-68
2024/04/01 09:48:26;;;;;;;56.80;11.50;;;;;;;20.87;57.87;99491.59;109126;1253;138666;-66
2024/04/01 09:50:54;;;;;;;53.40;12.90;;;;;;;20.91;57.81;99498.74;109271;1253;65815;-66
2024/04/01 09:53:21;;;;;;;61.20;13.10;;;;;;;20.91;57.61;99501.96;108846;1254;138245;-67
2024/04/01 09:55:54;;;;;;;56.10;12.90;;;;;;;20.92;57.52;99496.76;109110;1254;60020;-67
2024/04/01 09:58:35;;;;;;;61.00;12.60;;;;;;;20.92;57.40;99498.70;109299;1253;60004;-67
2024/04/01 10:01:09;;;;;;;64.40;12.90;;;;;;;20.91;57.31;99496.59;106224;1256;137904;-67
2024/04/01 10:03:45;;;;;;;61.00;12.10;;;;;;;20.95;57.36;99504.31;109211;1254;65986;-68
2024/04/01 10:06:40;;;;;;;55.50;12.10;;;;;;;21.04;57.24;99500.58;108980;1254;138616;-68
2024/04/01 10:09:22;;;;;;;58.30;12.80;;;;;;;21.24;57.02;99490.17;109249;1254;59900;-67
2024/04/01 10:12:04;;;;;;;58.20;13.10;;;;;;;21.46;57.03;99492.89;109208;1254;137879;-67
2024/04/01 10:14:38;;;;;;;54.60;12.80;;;;;;;21.72;56.63;99491.48;109203;1255;75593;-68
2024/04/01 10:17:23;;;;;;;;;;;;;;;22.00;56.26;99494.48;106096;1256;138282;-66
2024/04/01 10:20:35;;;;;;;53.50;11.90;;;;;;;22.25;55.59;99485.35;105128;1254;72779;-66
2024/04/01 10:23:46;;;;;;;52.60;11.90;;;;;;;22.49;54.80;99481.30;104551;1259;138298;-67
2024/04/01 10:26:31;;;;;;;70.50;13.80;;;;;;;22.74;54.46;99483.95;104624;1263;62089;-68
2024/04/01 10:29:29;;;;;;;47.30;11.80;;;;;;;22.96;54.03;99483.50;104528;1261;138622;-68
2024/04/01 10:32:30;;;;;;;46.00;10.00;;;;;;;23.17;53.42;99477.33;104598;1260;64622;-68
2024/04/01 10:35:03;;;;;;;59.00;12.40;;;;;;;23.30;52.68;99466.51;104314;1263;138436;-67
2024/04/01 10:37:47;;;;;;;62.80;14.20;;;;;;;23.37;52.27;99456.54;104481;1261;61192;-66
2024/04/01 10:40:17;;;;;;;50.60;12.10;;;;;;;23.47;52.06;99446.55;104505;1261;62330;-67
2024/04/01 10:42:49;;;;;;;53.20;12.10;;;;;;;23.60;51.89;99444.66;108612;1260;138306;-67
2024/04/01 10:45:34;;;;;;;65.00;12.60;;;;;;;23.73;51.49;99440.23;108775;1260;66474;-66
2024/04/01 10:48:19;;;;;;;58.40;11.50;;;;;;;23.81;51.25;99435.92;108649;1260;138492;-68
2024/04/01 10:51:24;;;;;;;51.20;11.60;;;;;;;23.84;51.22;99431.67;108814;1260;59965;-67
2024/04/01 10:53:53;;;;;;;67.30;13.40;;;;;;;23.82;50.92;99422.59;108690;1260;138551;-67
2024/04/01 10:56:38;;;;;;;62.00;14.50;;;;;;;23.82;50.90;99413.69;108750;1260;75274;-67
2024/04/01 10:59:32;;;;;;;52.00;12.40;;;;;;;23.74;50.77;99407.94;108693;1262;139298;-68
2024/04/01 11:02:21;;;;;;;58.60;12.80;;;;;;;23.65;50.63;99401.63;105089;1257;73387;-66
2024/04/01 11:05:26;;;;;;;60.90;12.00;;;;;;;23.74;50.58;99389.34;105053;1254;138229;-67
2024/04/01 11:08:15;;;;;;;63.90;13.00;;;;;;;23.80;50.39;99389.24;104322;1268;62131;-68
2024/04/01 11:10:44;;;;;;;64.50;13.50;;;;;;;23.87;50.09;99389.23;104368;1262;138510;-68
2024/04/01 11:13:12;;;;;;;66.30;12.80;;;;;;;23.85;50.18;99388.23;108560;1262;66572;-69
2024/04/01 11:15:39;;;;;;;51.80;12.70;;;;;;;23.86;50.34;99393.40;104885;1265;72671;-68
2024/04/01 11:18:15;;;;;;;62.00;12.80;;;;;;;23.88;50.46;99401.52;104355;1262;138813;-68